Map

Track Data

SID SEASON NUMBER BASIN SUBBASIN NAME ISO_TIME NATURE LAT LON WMO_WIND WMO_PRES WMO_AGENCY TRACK_TYPE DIST2LAND LANDFALL IFLAG USA_AGENCY USA_ATCF_ID USA_LAT USA_LON USA_RECORD USA_STATUS USA_WIND USA_PRES USA_SSHS USA_R34_NE USA_R34_SE USA_R34_SW USA_R34_NW USA_R50_NE USA_R50_SE USA_R50_SW USA_R50_NW USA_R64_NE USA_R64_SE USA_R64_SW USA_R64_NW USA_POCI USA_ROCI USA_RMW USA_EYE TOKYO_LAT TOKYO_LON TOKYO_GRADE TOKYO_WIND TOKYO_PRES TOKYO_R50_DIR TOKYO_R50_LONG TOKYO_R50_SHORT TOKYO_R30_DIR TOKYO_R30_LONG TOKYO_R30_SHORT TOKYO_LAND CMA_LAT CMA_LON CMA_CAT CMA_WIND CMA_PRES HKO_LAT HKO_LON HKO_CAT HKO_WIND HKO_PRES NEWDELHI_LAT NEWDELHI_LON NEWDELHI_GRADE NEWDELHI_WIND NEWDELHI_PRES NEWDELHI_CI NEWDELHI_DP NEWDELHI_POCI REUNION_LAT REUNION_LON REUNION_TYPE REUNION_WIND REUNION_PRES REUNION_TNUM REUNION_CI REUNION_RMW REUNION_R34_NE REUNION_R34_SE REUNION_R34_SW REUNION_R34_NW REUNION_R50_NE REUNION_R50_SE REUNION_R50_SW REUNION_R50_NW REUNION_R64_NE REUNION_R64_SE REUNION_R64_SW REUNION_R64_NW BOM_LAT BOM_LON BOM_TYPE BOM_WIND BOM_PRES BOM_TNUM BOM_CI BOM_RMW BOM_R34_NE BOM_R34_SE BOM_R34_SW BOM_R34_NW BOM_R50_NE BOM_R50_SE BOM_R50_SW BOM_R50_NW BOM_R64_NE BOM_R64_SE BOM_R64_SW BOM_R64_NW BOM_ROCI BOM_POCI BOM_EYE BOM_POS_METHOD BOM_PRES_METHOD NADI_LAT NADI_LON NADI_CAT NADI_WIND NADI_PRES WELLINGTON_LAT WELLINGTON_LON WELLINGTON_WIND WELLINGTON_PRES DS824_LAT DS824_LON DS824_STAGE DS824_WIND DS824_PRES TD9636_LAT TD9636_LON TD9636_STAGE TD9636_WIND TD9636_PRES TD9635_LAT TD9635_LON TD9635_WIND TD9635_PRES TD9635_ROCI NEUMANN_LAT NEUMANN_LON NEUMANN_CLASS NEUMANN_WIND NEUMANN_PRES MLC_LAT MLC_LON MLC_CLASS MLC_WIND MLC_PRES USA_GUST BOM_GUST BOM_GUST_PER REUNION_GUST REUNION_GUST_PER USA_SEAHGT USA_SEARAD_NE USA_SEARAD_SE USA_SEARAD_SW USA_SEARAD_NW STORM_SPEED STORM_DIR
1930234N21306 1930 41 NA NA NOT_NAMED 1930-08-21 18:00:00 TS 20.6000 -54.5000 45 hurdat_atl main 1188 1160 O_____________ hurdat_atl AL011930 20.6000 -54.5000 TS 45 0 6 290
1930234N21306 1930 41 NA NA NOT_NAMED 1930-08-21 21:00:00 TS 20.7026 -54.7924 main 1160 1131 P_____________ AL011930 20.7026 -54.7924 TS 47 0 6 290
1930234N21306 1930 41 NA NA NOT_NAMED 1930-08-22 00:00:00 TS 20.8000 -55.1000 50 hurdat_atl main 1131 1103 O_____________ hurdat_atl AL011930 20.8000 -55.1000 TS 50 0 6 288
1930234N21306 1930 41 NA NA NOT_NAMED 1930-08-22 03:00:00 TS 20.8924 -55.4351 main 1103 1066 P_____________ AL011930 20.8924 -55.4351 TS 52 0 7 287
1930234N21306 1930 41 NA NA NOT_NAMED 1930-08-22 06:00:00 TS 21.0000 -55.8000 55 hurdat_atl main 1066 1028 O_____________ hurdat_atl AL011930 21.0000 -55.8000 TS 55 0 8 290
1930234N21306 1930 41 NA NA NOT_NAMED 1930-08-22 09:00:00 TS 21.1501 -56.2074 main 1031 995 P_____________ AL011930 21.1501 -56.2074 TS 55 0 8 292
1930234N21306 1930 41 NA NA NOT_NAMED 1930-08-22 12:00:00 TS 21.3000 -56.6000 55 hurdat_atl main 995 969 O_____________ hurdat_atl AL011930 21.3000 -56.6000 TS 55 0 7 291
1930234N21306 1930 41 NA NA NOT_NAMED 1930-08-22 15:00:00 TS 21.4074 -56.9226 main 969 943 P_____________ AL011930 21.4074 -56.9226 TS 55 0 6 290
1930234N21306 1930 41 NA NA NOT_NAMED 1930-08-22 18:00:00 TS 21.5000 -57.2000 55 hurdat_atl main 943 918 O_____________ hurdat_atl AL011930 21.5000 -57.2000 TS 55 0 6 291
1930234N21306 1930 41 NA NA NOT_NAMED 1930-08-22 21:00:00 TS 21.6075 -57.4725 main 918 903 P_____________ AL011930 21.6075 -57.4725 TS 55 0 5 293
1930234N21306 1930 41 NA NA NOT_NAMED 1930-08-23 00:00:00 TS 21.7000 -57.7000 55 hurdat_atl main 903 889 O_____________ hurdat_atl AL011930 21.7000 -57.7000 TS 55 0 4 292
1930234N21306 1930 41 NA NA NOT_NAMED 1930-08-23 03:00:00 TS 21.7574 -57.8651 main 889 879 P_____________ AL011930 21.7574 -57.8651 TS 55 0 3 290
1930234N21306 1930 41 NA NA NOT_NAMED 1930-08-23 06:00:00 TS 21.8000 -58.0000 55 hurdat_atl main 879 870 O_____________ hurdat_atl AL011930 21.8000 -58.0000 TS 55 0 3 291
1930234N21306 1930 41 NA NA NOT_NAMED 1930-08-23 09:00:00 TS 21.8575 -58.1500 main 875 856 P_____________ AL011930 21.8575 -58.1500 TS 55 0 3 290
1930234N21306 1930 41 NA NA NOT_NAMED 1930-08-23 12:00:00 TS 21.9000 -58.3000 55 hurdat_atl main 856 847 O_____________ hurdat_atl AL011930 21.9000 -58.3000 TS 55 0 3 280
1930234N21306 1930 41 NA NA NOT_NAMED 1930-08-23 15:00:00 TS 21.9075 -58.4575 main 837 828 P_____________ AL011930 21.9075 -58.4575 TS 55 0 3 270
1930234N21306 1930 41 NA NA NOT_NAMED 1930-08-23 18:00:00 TS 21.9000 -58.6000 55 hurdat_atl main 828 819 O_____________ hurdat_atl AL011930 21.9000 -58.6000 TS 55 0 2 266
1930234N21306 1930 41 NA NA NOT_NAMED 1930-08-23 21:00:00 TS 21.8925 -58.7000 main 819 810 P_____________ AL011930 21.8925 -58.7000 TS 57 0 2 270
1930234N21306 1930 41 NA NA NOT_NAMED 1930-08-24 00:00:00 TS 21.9000 -58.8000 60 hurdat_atl main 810 801 O_____________ hurdat_atl AL011930 21.9000 -58.8000 TS 60 0 2 281
1930234N21306 1930 41 NA NA NOT_NAMED 1930-08-24 03:00:00 TS 21.9350 -58.9350 main 801 788 P_____________ AL011930 21.9350 -58.9350 TS 62 0 3 290
1930234N21306 1930 41 NA NA NOT_NAMED 1930-08-24 06:00:00 TS 22.0000 -59.1000 65 hurdat_atl main 788 776 O_____________ hurdat_atl AL011930 22.0000 -59.1000 HU 65 1 3 292
1930234N21306 1930 41 NA NA NOT_NAMED 1930-08-24 09:00:00 TS 22.0624 -59.2702 main 776 764 P_____________ AL011930 22.0624 -59.2702 HU 67 1 4 298
1930234N21306 1930 41 NA NA NOT_NAMED 1930-08-24 12:00:00 TS 22.2000 -59.5000 70 hurdat_atl main 764 751 O_____________ hurdat_atl AL011930 22.2000 -59.5000 HU 70 1 6 307
1930234N21306 1930 41 NA NA NOT_NAMED 1930-08-24 15:00:00 TS 22.4400 -59.8202 main 751 746 P_____________ AL011930 22.4400 -59.8202 HU 75 1 9 313
1930234N21306 1930 41 NA NA NOT_NAMED 1930-08-24 18:00:00 TS 22.8000 -60.2000 80 hurdat_atl main 746 746 O_____________ hurdat_atl AL011930 22.8000 -60.2000 HU 80 1 11 319
1930234N21306 1930 41 NA NA NOT_NAMED 1930-08-24 21:00:00 TS 23.2624 -60.5852 main 754 747 P_____________ AL011930 23.2624 -60.5852 HU 85 2 12 324
1930234N21306 1930 41 NA NA NOT_NAMED 1930-08-25 00:00:00 TS 23.8000 -61.0000 90 hurdat_atl main 769 769 O_____________ hurdat_atl AL011930 23.8000 -61.0000 HU 90 2 13 324
1930234N21306 1930 41 NA NA NOT_NAMED 1930-08-25 03:00:00 TS 24.3425 -61.4501 main 784 784 P_____________ AL011930 24.3425 -61.4501 HU 95 2 14 323
1930234N21306 1930 41 NA NA NOT_NAMED 1930-08-25 06:00:00 TS 24.9000 -61.9000 100 hurdat_atl main 821 821 O_____________ hurdat_atl AL011930 24.9000 -61.9000 HU 100 3 14 325
1930234N21306 1930 41 NA NA NOT_NAMED 1930-08-25 09:00:00 TS 25.4498 -62.3080 main 853 853 P_____________ AL011930 25.4498 -62.3080 HU 102 3 13 327
1930234N21306 1930 41 NA NA NOT_NAMED 1930-08-25 12:00:00 TS 26.0000 -62.7000 105 hurdat_atl main 900 900 O_____________ hurdat_atl AL011930 26.0000 -62.7000 HU 105 3 13 327
1930234N21306 1930 41 NA NA NOT_NAMED 1930-08-25 15:00:00 TS 26.5424 -63.1005 main 941 941 P_____________ AL011930 26.5424 -63.1005 HU 107 3 13 327
1930234N21306 1930 41 NA NA NOT_NAMED 1930-08-25 18:00:00 TS 27.1000 -63.5000 110 hurdat_atl main 995 995 O_____________ hurdat_atl AL011930 27.1000 -63.5000 HU 110 3 13 328
1930234N21306 1930 41 NA NA NOT_NAMED 1930-08-25 21:00:00 TS 27.6773 -63.8932 main 1053 1053 P_____________ AL011930 27.6773 -63.8932 HU 110 3 14 329
1930234N21306 1930 41 NA NA NOT_NAMED 1930-08-26 00:00:00 TS 28.3000 -64.3000 110 hurdat_atl main 1114 1114 O_____________ hurdat_atl AL011930 28.3000 -64.3000 HU 110 3 15 329
1930234N21306 1930 41 NA NA NOT_NAMED 1930-08-26 03:00:00 TS 28.9626 -64.7651 main 1174 1174 P_____________ AL011930 28.9626 -64.7651 HU 110 3 16 331
1930234N21306 1930 41 NA NA NOT_NAMED 1930-08-26 06:00:00 TS 29.7000 -65.2000 110 hurdat_atl main 1176 1100 O_____________ hurdat_atl AL011930 29.7000 -65.2000 HU 110 3 17 336
1930234N21306 1930 41 NA NA NOT_NAMED 1930-08-26 09:00:00 TS 30.5349 -65.5525 main 1092 1021 P_____________ AL011930 30.5349 -65.5525 HU 110 3 18 343
1930234N21306 1930 41 NA NA NOT_NAMED 1930-08-26 12:00:00 TS 31.4000 -65.8000 110 hurdat_atl main 1021 961 O_____________ hurdat_atl AL011930 31.4000 -65.8000 HU 110 3 17 348
1930234N21306 1930 41 NA NA NOT_NAMED 1930-08-26 15:00:00 TS 32.2224 -65.9602 main 961 923 P_____________ AL011930 32.2224 -65.9602 HU 107 3 16 354
1930234N21306 1930 41 NA NA NOT_NAMED 1930-08-26 18:00:00 TS 33.0000 -66.0000 105 hurdat_atl main 923 896 O_____________ hurdat_atl AL011930 33.0000 -66.0000 HU 105 3 15 0
1930234N21306 1930 41 NA NA NOT_NAMED 1930-08-26 21:00:00 TS 33.7223 -65.9745 main 896 887 P_____________ AL011930 33.7223 -65.9745 HU 102 3 14 7
1930234N21306 1930 41 NA NA NOT_NAMED 1930-08-27 00:00:00 TS 34.4000 -65.8000 100 hurdat_atl main 891 842 O_____________ hurdat_atl AL011930 34.4000 -65.8000 HU 100 3 14 18
1930234N21306 1930 41 NA NA NOT_NAMED 1930-08-27 03:00:00 TS 35.0575 -65.4600 main 832 795 P_____________ AL011930 35.0575 -65.4600 HU 97 3 15 27
1930234N21306 1930 41 NA NA NOT_NAMED 1930-08-27 06:00:00 TS 35.7000 -65.0000 95 hurdat_atl main 795 759 O_____________ hurdat_atl AL011930 35.7000 -65.0000 HU 95 2 15 29
1930234N21306 1930 41 NA NA NOT_NAMED 1930-08-27 09:00:00 TS 36.3492 -64.5657 main 759 731 P_____________ AL011930 36.3492 -64.5657 HU 92 2 15 32
1930234N21306 1930 41 NA NA NOT_NAMED 1930-08-27 12:00:00 TS 37.0000 -64.0000 90 hurdat_atl main 731 677 O_____________ hurdat_atl AL011930 37.0000 -64.0000 HU 90 2 17 39
1930234N21306 1930 41 NA NA NOT_NAMED 1930-08-27 15:00:00 TS 37.6575 -63.2172 main 669 627 P_____________ AL011930 37.6575 -63.2172 HU 87 2 19 46
1930234N21306 1930 41 NA NA NOT_NAMED 1930-08-27 18:00:00 TS 38.3000 -62.3000 85 hurdat_atl main 630 606 O_____________ hurdat_atl AL011930 38.3000 -62.3000 HU 85 2 19 49
1930234N21306 1930 41 NA NA NOT_NAMED 1930-08-27 21:00:00 TS 38.9142 -61.3784 main 606 596 P_____________ AL011930 38.9142 -61.3784 HU 85 2 19 51
1930234N21306 1930 41 NA NA NOT_NAMED 1930-08-28 00:00:00 TS 39.5000 -60.4000 85 hurdat_atl main 601 584 O_____________ hurdat_atl AL011930 39.5000 -60.4000 HU 85 2 19 53
1930234N21306 1930 41 NA NA NOT_NAMED 1930-08-28 03:00:00 TS 40.0640 -59.3783 main 580 556 P_____________ AL011930 40.0640 -59.3783 HU 85 2 19 56
1930234N21306 1930 41 NA NA NOT_NAMED 1930-08-28 06:00:00 ET 40.6000 -58.3000 85 hurdat_atl main 559 545 O_____________ hurdat_atl AL011930 40.6000 -58.3000 EX 85 -4 20 56
1930234N21306 1930 41 NA NA NOT_NAMED 1930-08-28 09:00:00 ET 41.1500 -57.2173 main 544 544 P_____________ AL011930 41.1500 -57.2173 EX 85 -4 20 60
1930234N21306 1930 41 NA NA NOT_NAMED 1930-08-28 12:00:00 ET 41.6000 -56.0000 85 hurdat_atl main 567 540 O_____________ hurdat_atl AL011930 41.6000 -56.0000 EX 85 -4 21 70
1930234N21306 1930 41 NA NA NOT_NAMED 1930-08-28 15:00:00 ET 41.8566 -54.6247 main 528 511 P_____________ AL011930 41.8566 -54.6247 EX 85 -4 23 80
1930234N21306 1930 41 NA NA NOT_NAMED 1930-08-28 18:00:00 ET 42.0000 -53.0000 85 hurdat_atl main 511 506 O_____________ hurdat_atl AL011930 42.0000 -53.0000 EX 85 -4 26 84
1930234N21306 1930 41 NA NA NOT_NAMED 1930-08-28 21:00:00 ET 42.1183 -51.1482 main 527 527 P_____________ AL011930 42.1183 -51.1482 EX 82 -4 30 86
1930234N21306 1930 41 NA NA NOT_NAMED 1930-08-29 00:00:00 ET 42.2000 -49.0000 80 hurdat_atl main 591 591 O_____________ hurdat_atl AL011930 42.2000 -49.0000 EX 80 -4 33 88
1930234N21306 1930 41 NA NA NOT_NAMED 1930-08-29 03:00:00 ET 42.2560 -46.6856 main 701 701 P_____________ AL011930 42.2560 -46.6856 EX 80 -4 37 88
1930234N21306 1930 41 NA NA NOT_NAMED 1930-08-29 06:00:00 ET 42.3000 -44.0000 80 hurdat_atl main 867 867 O_____________ hurdat_atl AL011930 42.3000 -44.0000 EX 80 -4 44 89
1930234N21306 1930 41 NA NA NOT_NAMED 1930-08-29 09:00:00 ET 42.3159 -40.7490 main 1090 1090 P_____________ AL011930 42.3159 -40.7490 EX 77 -4 48 90
1930234N21306 1930 41 NA NA NOT_NAMED 1930-08-29 12:00:00 ET 42.3000 -37.5000 75 hurdat_atl main 1315 1315 O_____________ hurdat_atl AL011930 42.3000 -37.5000 EX 75 -4 44 90
1930234N21306 1930 41 NA NA NOT_NAMED 1930-08-29 15:00:00 ET 42.2947 -34.7397 main 1514 1514 P_____________ AL011930 42.2947 -34.7397 EX 75 -4 37 90
1930234N21306 1930 41 NA NA NOT_NAMED 1930-08-29 18:00:00 ET 42.3000 -32.5000 75 hurdat_atl main 1673 1673 O_____________ hurdat_atl AL011930 42.3000 -32.5000 EX 75 -4 29 90
1930234N21306 1930 41 NA NA NOT_NAMED 1930-08-29 21:00:00 ET 42.2858 -30.7755 main 1749 1652 P_____________ AL011930 42.2858 -30.7755 EX 75 -4 22 90
1930234N21306 1930 41 NA NA NOT_NAMED 1930-08-30 00:00:00 ET 42.3000 -29.5000 75 hurdat_atl main 1644 1555 O_____________ hurdat_atl AL011930 42.3000 -29.5000 EX 75 -4 18 88
1930234N21306 1930 41 NA NA NOT_NAMED 1930-08-30 03:00:00 ET 42.3402 -28.3879 main 1555 1480 P_____________ AL011930 42.3402 -28.3879 EX 72 -4 15 86
1930234N21306 1930 41 NA NA NOT_NAMED 1930-08-30 06:00:00 ET 42.4000 -27.5000 70 hurdat_atl main 1480 1414 O_____________ hurdat_atl AL011930 42.4000 -27.5000 EX 70 -4 13 85
1930234N21306 1930 41 NA NA NOT_NAMED 1930-08-30 09:00:00 ET 42.4571 -26.6527 main 1414 1357 P_____________ AL011930 42.4571 -26.6527 EX 70 -4 11 85
1930234N21306 1930 41 NA NA NOT_NAMED 1930-08-30 12:00:00 ET 42.5000 -26.0000 70 hurdat_atl main 1357 1325 O_____________ hurdat_atl AL011930 42.5000 -26.0000 EX 70 -4 8 86
1930234N21306 1930 41 NA NA NOT_NAMED 1930-08-30 15:00:00 ET 42.5068 -25.5598 main 1325 1301 P_____________ AL011930 42.5068 -25.5598 EX 67 -4 5 90
1930234N21306 1930 41 NA NA NOT_NAMED 1930-08-30 18:00:00 ET 42.5000 -25.3000 65 hurdat_atl main 1301 1284 O_____________ hurdat_atl AL011930 42.5000 -25.3000 EX 65 -4 3 91
1930234N21306 1930 41 NA NA NOT_NAMED 1930-08-30 21:00:00 ET 42.4998 -25.1050 main 1284 1276 P_____________ AL011930 42.4998 -25.1050 EX 62 -4 2 90
1930234N21306 1930 41 NA NA NOT_NAMED 1930-08-31 00:00:00 ET 42.5000 -25.0000 60 hurdat_atl main 1276 1268 O_____________ hurdat_atl AL011930 42.5000 -25.0000 EX 60 -4 1 90
1930234N21306 1930 41 NA NA NOT_NAMED 1930-08-31 03:00:00 ET 42.5000 -24.9200 main 1268 1268 P_____________ AL011930 42.5000 -24.9200 EX 57 -4 1 90
1930234N21306 1930 41 NA NA NOT_NAMED 1930-08-31 06:00:00 ET 42.5000 -24.9000 55 hurdat_atl main 1268 1268 O_____________ hurdat_atl AL011930 42.5000 -24.9000 EX 55 -4 0 0
1930234N21306 1930 41 NA NA NOT_NAMED 1930-08-31 09:00:00 ET 42.4849 -24.9051 main 1268 1268 P_____________ AL011930 42.4849 -24.9051 EX 52 -4 1 270
1930234N21306 1930 41 NA NA NOT_NAMED 1930-08-31 12:00:00 ET 42.5000 -25.0000 50 hurdat_atl main 1276 1276 O_____________ hurdat_atl AL011930 42.5000 -25.0000 EX 50 -4 2 292
1930234N21306 1930 41 NA NA NOT_NAMED 1930-08-31 15:00:00 ET 42.5776 -25.2200 main 1291 1291 P_____________ AL011930 42.5776 -25.2200 EX 50 -4 4 298
1930234N21306 1930 41 NA NA NOT_NAMED 1930-08-31 18:00:00 ET 42.7000 -25.5000 50 hurdat_atl main 1314 1314 O_____________ hurdat_atl AL011930 42.7000 -25.5000 EX 50 -4 5 304
1930234N21306 1930 41 NA NA NOT_NAMED 1930-08-31 21:00:00 ET 42.8425 -25.7575 main 1337 1335 P_____________ AL011930 42.8425 -25.7575 EX 52 -4 5 309
1930234N21306 1930 41 NA NA NOT_NAMED 1930-09-01 00:00:00 ET 43.0000 -26.0000 55 hurdat_atl main 1350 1350 O_____________ hurdat_atl AL011930 43.0000 -26.0000 EX 55 -4 5 312
1930234N21306 1930 41 NA NA NOT_NAMED 1930-09-01 03:00:00 ET 43.1575 -26.2300 main 1365 1365 P_____________ AL011930 43.1575 -26.2300 EX 57 -4 4 316
1930234N21306 1930 41 NA NA NOT_NAMED 1930-09-01 06:00:00 ET 43.3000 -26.4000 60 hurdat_atl main 1380 1379 O_____________ hurdat_atl AL011930 43.3000 -26.4000 EX 60 -4 3 325
1930234N21306 1930 41 NA NA NOT_NAMED 1930-09-01 09:00:00 ET 43.4074 -26.4727 main 1387 1386 P_____________ AL011930 43.4074 -26.4727 EX 60 -4 2 340
1930234N21306 1930 41 NA NA NOT_NAMED 1930-09-01 12:00:00 ET 43.5000 -26.5000 60 hurdat_atl main 1386 1385 O_____________ hurdat_atl AL011930 43.5000 -26.5000 EX 60 -4 2 343
1930234N21306 1930 41 NA NA NOT_NAMED 1930-09-01 15:00:00 ET 43.6000 -26.5575 main 1393 1393 P_____________ AL011930 43.6000 -26.5575 EX 57 -4 2 340
1930234N21306 1930 41 NA NA NOT_NAMED 1930-09-01 18:00:00 ET 43.7000 -26.6000 55 hurdat_atl main 1393 1392 O_____________ hurdat_atl AL011930 43.7000 -26.6000 EX 55 -4 2 347
1930234N21306 1930 41 NA NA NOT_NAMED 1930-09-01 21:00:00 ET 43.7925 -26.6075 main 1392 1392 P_____________ AL011930 43.7925 -26.6075 EX 52 -4 2 8
1930234N21306 1930 41 NA NA NOT_NAMED 1930-09-02 00:00:00 ET 43.9000 -26.6000 50 hurdat_atl main 1392 1392 O_____________ hurdat_atl AL011930 43.9000 -26.6000 EX 50 -4 3 2
1930234N21306 1930 41 NA NA NOT_NAMED 1930-09-02 03:00:00 ET 44.0425 -26.6074 main 1392 1391 P_____________ AL011930 44.0425 -26.6074 EX 47 -4 3 0
1930234N21306 1930 41 NA NA NOT_NAMED 1930-09-02 06:00:00 ET 44.2000 -26.6000 45 hurdat_atl main 1391 1391 O_____________ hurdat_atl AL011930 44.2000 -26.6000 EX 45 -4 3 5
1930234N21306 1930 41 NA NA NOT_NAMED 1930-09-02 09:00:00 ET 44.3349 -26.5871 main 1391 1383 P_____________ AL011930 44.3349 -26.5871 EX 42 -4 3 12
1930234N21306 1930 41 NA NA NOT_NAMED 1930-09-02 12:00:00 ET 44.5000 -26.5000 40 hurdat_atl main 1383 1368 O_____________ hurdat_atl AL011930 44.5000 -26.5000 EX 40 -4 4 34
1930234N21306 1930 41 NA NA NOT_NAMED 1930-09-02 15:00:00 ET 44.6978 -26.2431 main 1360 1346 P_____________ AL011930 44.6978 -26.2431 EX 37 -4 6 36
1930234N21306 1930 41 NA NA NOT_NAMED 1930-09-02 18:00:00 ET 45.0000 -26.0000 35 hurdat_atl main 1346 1334 O_____________ hurdat_atl AL011930 45.0000 -26.0000 EX 35 -4 8 16
1930234N21306 1930 41 NA NA NOT_NAMED 1930-09-02 21:00:00 ET 45.4549 -25.9391 main 1327 1301 P_____________ AL011930 45.4549 -25.9391 EX 32 -4 10 1
1930234N21306 1930 41 NA NA NOT_NAMED 1930-09-03 00:00:00 ET 46.0000 -26.0000 30 hurdat_atl main 1301 O_____________ hurdat_atl AL011930 46.0000 -26.0000 EX 30 -4 11 356

About IBTrACS Database

This database is a web-friendly format of International Best Track Archive for Climate Stewardship (IBTrACS), a global best track data archive curated by NOAA dating back to 1842.

Updated: 2021-10-21